Terminal Aerodrome Forecast
Issued by NWS

Current Version | Previous Version | Text Only | Print | Product List | Glossary Off
Versions: 1 2 3 4 5 6 7 8 9 10 11 12 13 14 15 16 17 18 19 20 21

952
FTUS41 KILN 220123 AAA
TAFLUK
TAF AMD
KLUK 220123Z 2201/2224 20003KT P6SM OVC250
     FM220700 00000KT 4SM BR SCT250
      TEMPO 2208/2212 1SM BR
     FM221200 23004KT P6SM VCTS SCT040CB BKN120
     FM221800 25008KT P6SM SCT040 BKN200=

USA.gov is the U.S. government's official web portal to all federal, state and local government web resources and services.